地図

経路データ

SID SEASON NUMBER BASIN SUBBASIN NAME ISO_TIME NATURE LAT LON WMO_WIND WMO_PRES WMO_AGENCY TRACK_TYPE DIST2LAND LANDFALL IFLAG USA_AGENCY USA_ATCF_ID USA_LAT USA_LON USA_RECORD USA_STATUS USA_WIND USA_PRES USA_SSHS USA_R34_NE USA_R34_SE USA_R34_SW USA_R34_NW USA_R50_NE USA_R50_SE USA_R50_SW USA_R50_NW USA_R64_NE USA_R64_SE USA_R64_SW USA_R64_NW USA_POCI USA_ROCI USA_RMW USA_EYE TOKYO_LAT TOKYO_LON TOKYO_GRADE TOKYO_WIND TOKYO_PRES TOKYO_R50_DIR TOKYO_R50_LONG TOKYO_R50_SHORT TOKYO_R30_DIR TOKYO_R30_LONG TOKYO_R30_SHORT TOKYO_LAND CMA_LAT CMA_LON CMA_CAT CMA_WIND CMA_PRES HKO_LAT HKO_LON HKO_CAT HKO_WIND HKO_PRES NEWDELHI_LAT NEWDELHI_LON NEWDELHI_GRADE NEWDELHI_WIND NEWDELHI_PRES NEWDELHI_CI NEWDELHI_DP NEWDELHI_POCI REUNION_LAT REUNION_LON REUNION_TYPE REUNION_WIND REUNION_PRES REUNION_TNUM REUNION_CI REUNION_RMW REUNION_R34_NE REUNION_R34_SE REUNION_R34_SW REUNION_R34_NW REUNION_R50_NE REUNION_R50_SE REUNION_R50_SW REUNION_R50_NW REUNION_R64_NE REUNION_R64_SE REUNION_R64_SW REUNION_R64_NW BOM_LAT BOM_LON BOM_TYPE BOM_WIND BOM_PRES BOM_TNUM BOM_CI BOM_RMW BOM_R34_NE BOM_R34_SE BOM_R34_SW BOM_R34_NW BOM_R50_NE BOM_R50_SE BOM_R50_SW BOM_R50_NW BOM_R64_NE BOM_R64_SE BOM_R64_SW BOM_R64_NW BOM_ROCI BOM_POCI BOM_EYE BOM_POS_METHOD BOM_PRES_METHOD NADI_LAT NADI_LON NADI_CAT NADI_WIND NADI_PRES WELLINGTON_LAT WELLINGTON_LON WELLINGTON_WIND WELLINGTON_PRES DS824_LAT DS824_LON DS824_STAGE DS824_WIND DS824_PRES TD9636_LAT TD9636_LON TD9636_STAGE TD9636_WIND TD9636_PRES TD9635_LAT TD9635_LON TD9635_WIND TD9635_PRES TD9635_ROCI NEUMANN_LAT NEUMANN_LON NEUMANN_CLASS NEUMANN_WIND NEUMANN_PRES MLC_LAT MLC_LON MLC_CLASS MLC_WIND MLC_PRES USA_GUST BOM_GUST BOM_GUST_PER REUNION_GUST REUNION_GUST_PER USA_SEAHGT USA_SEARAD_NE USA_SEARAD_SE USA_SEARAD_SW USA_SEARAD_NW STORM_SPEED STORM_DIR
1916301N15092 1916 62 NI BB NOT_NAMED 1916-10-27 00:00:00 TS 15.1000 91.9000 main 266 266 _________O____ -1 15.1000 91.9000 TC 30 6 276
1916301N15092 1916 62 NI BB NOT_NAMED 1916-10-27 03:00:00 TS 15.1335 91.5684 main 296 296 _________PO___ -1 15.1502 91.4025 TC 30 15.1000 91.9000 1 8 276
1916301N15092 1916 62 NI BB NOT_NAMED 1916-10-27 06:00:00 TS 15.1779 91.0944 main 343 343 _________OP___ -1 15.2000 90.9000 TC 30 15.1447 91.3861 1 9 276
1916301N15092 1916 62 NI BB NOT_NAMED 1916-10-27 09:00:00 TS 15.2247 90.6004 main 395 395 _________PP___ -1 15.2499 90.3925 TC 30 15.1911 90.8776 1 9 276
1916301N15092 1916 62 NI BB NOT_NAMED 1916-10-27 12:00:00 TS 15.2710 90.1402 main 446 446 _________OP___ -1 15.3000 89.9000 TC 30 15.2419 90.3804 1 9 276
1916301N15092 1916 62 NI BB NOT_NAMED 1916-10-27 15:00:00 TS 15.3212 89.6712 main 488 488 _________PO___ -1 15.3424 89.4424 TC 30 15.3000 89.9000 1 9 277
1916301N15092 1916 62 NI BB NOT_NAMED 1916-10-27 18:00:00 TS 15.3837 89.2198 main 539 539 _________OP___ -1 15.4000 89.0000 TC 30 15.3673 89.4397 1 9 280
1916301N15092 1916 62 NI BB NOT_NAMED 1916-10-27 21:00:00 TS 15.4671 88.7712 main 564 531 _________PP___ -1 15.4924 88.5500 TC 30 15.4419 88.9924 1 9 282
1916301N15092 1916 62 NI BB NOT_NAMED 1916-10-28 00:00:00 TS 15.5602 88.3245 main 531 500 _________OP___ -1 15.6000 88.1000 TC 30 15.5205 88.5490 1 9 282
1916301N15092 1916 62 NI BB NOT_NAMED 1916-10-28 03:00:00 TS 15.6537 87.8787 main 493 454 _________PO___ -1 15.7074 87.6575 TC 30 15.6000 88.1000 1 9 282
1916301N15092 1916 62 NI BB NOT_NAMED 1916-10-28 06:00:00 TS 15.7395 87.4100 main 454 408 _________OP___ -1 15.8000 87.2000 TC 30 15.6790 87.6200 1 9 279
1916301N15092 1916 62 NI BB NOT_NAMED 1916-10-28 09:00:00 TS 15.8075 86.9137 main 408 370 _________PP___ -1 15.8575 86.6924 TC 30 15.7575 87.1350 1 10 278
1916301N15092 1916 62 NI BB NOT_NAMED 1916-10-28 12:00:00 TS 15.8661 86.4288 main 363 336 _________OP___ -1 15.9000 86.2000 TC 30 15.8322 86.6575 1 9 278
1916301N15092 1916 62 NI BB NOT_NAMED 1916-10-28 15:00:00 TS 15.9249 85.9925 main 336 302 _________PO___ -1 15.9498 85.7850 TC 30 15.9000 86.2000 1 8 278
1916301N15092 1916 62 NI BB NOT_NAMED 1916-10-28 18:00:00 TS 15.9804 85.5912 main 302 277 _________OP___ -1 16.0000 85.4000 TC 30 15.9608 85.7824 1 8 278
1916301N15092 1916 62 NI BB NOT_NAMED 1916-10-28 21:00:00 TS 16.0321 85.1924 main 277 239 _________PP___ -1 16.0499 85.0000 TC 30 16.0144 85.3849 1 8 277
1916301N15092 1916 62 NI BB NOT_NAMED 1916-10-29 00:00:00 TS 16.0804 84.7975 main 239 210 _________OP___ -1 16.1000 84.6000 TC 30 16.0608 84.9949 1 8 277
1916301N15092 1916 62 NI BB NOT_NAMED 1916-10-29 03:00:00 TS 16.1287 84.4038 main 210 178 _________PO___ -1 16.1574 84.2075 TC 30 16.1000 84.6000 1 8 276
1916301N15092 1916 62 NI BB NOT_NAMED 1916-10-29 06:00:00 TS 16.1680 83.9911 main 178 144 _________OP___ -1 16.2000 83.8000 TC 30 16.1361 84.1822 1 8 274
1916301N15092 1916 62 NI BB NOT_NAMED 1916-10-29 09:00:00 TS 16.1861 83.5575 main 144 96 _________PP___ -1 16.2075 83.3575 TC 30 16.1647 83.7575 1 8 272
1916301N15092 1916 62 NI BB NOT_NAMED 1916-10-29 12:00:00 TS 16.1930 83.1145 main 96 61 _________OP___ -1 16.2000 82.9000 TC 30 16.1861 83.3290 1 9 271
1916301N15092 1916 62 NI BB NOT_NAMED 1916-10-29 15:00:00 TS 16.2000 82.6712 main 61 39 _________PO___ -1 16.2000 82.4425 TC 30 16.2000 82.9000 1 8 271
1916301N15092 1916 62 NI BB NOT_NAMED 1916-10-29 18:00:00 TS 16.2039 82.2702 main 39 22 _________OP___ -1 16.2000 82.0000 TC 30 16.2069 82.4728 1 8 270
1916301N15092 1916 62 NI BB NOT_NAMED 1916-10-29 21:00:00 TS 16.2049 81.8645 main 22 11 _________PP___ -1 16.2001 81.5900 TC 30 16.2081 82.0475 1 8 270
1916301N15092 1916 62 NI BB NOT_NAMED 1916-10-30 00:00:00 TS 16.2035 81.4823 main 22 0 _________OP___ -1 16.2000 81.2000 TC 30 16.2053 81.6234 1 6 270
1916301N15092 1916 62 NI BB NOT_NAMED 1916-10-30 03:00:00 NR 16.2000 81.2000 main 0 __________O___ -1 TC 16.2000 81.2000 1 5 269

IBTrACS Databaseについて

本データベースは、米国NOAAが公開する1842年以降の世界の熱帯低気圧のベストトラックデータアーカイブInternational Best Track Archive for Climate Stewardship (IBTrACS)を、ウェブで閲覧しやすい形式に変換したものです。

最終更新日:2021-10-25